createdAt,value
2022-09-16T00:02:12.575Z,13.58
2022-09-16T00:07:14.171Z,13.53
2022-09-16T00:12:15.687Z,13.50
2022-09-16T00:17:17.288Z,13.52
2022-09-16T00:22:18.877Z,13.51
2022-09-16T00:27:20.547Z,13.51
2022-09-16T00:32:24.038Z,13.33
2022-09-16T00:37:25.742Z,13.39
2022-09-16T00:42:27.273Z,13.31
2022-09-16T00:47:34.284Z,13.27
2022-09-16T00:52:36.391Z,13.17
2022-09-16T00:57:40.111Z,13.14
2022-09-16T01:02:44.043Z,13.14
2022-09-16T01:07:48.546Z,13.09
2022-09-16T01:12:55.862Z,13.05
2022-09-16T01:18:02.839Z,12.82
2022-09-16T01:23:41.889Z,12.73
2022-09-16T01:29:14.981Z,12.82
2022-09-16T01:34:38.284Z,12.70
2022-09-16T01:40:00.997Z,12.56
2022-09-16T01:45:13.814Z,12.78
2022-09-16T01:50:19.481Z,12.65
2022-09-16T01:55:40.205Z,12.72
2022-09-16T02:00:45.084Z,12.79
2022-09-16T02:05:58.466Z,12.72
2022-09-16T02:11:03.758Z,12.73
2022-09-16T02:16:11.213Z,12.91
2022-09-16T02:21:16.186Z,12.73
2022-09-16T02:26:21.629Z,12.87
2022-09-16T02:31:28.568Z,12.85
2022-09-16T02:36:32.407Z,12.89
2022-09-16T02:41:35.073Z,12.92
2022-09-16T02:46:45.555Z,12.84
2022-09-16T02:52:24.506Z,12.86
2022-09-16T02:57:26.536Z,12.85
2022-09-16T03:02:28.387Z,12.73
2022-09-16T03:07:30.251Z,12.93
2022-09-16T03:12:57.911Z,12.92
2022-09-16T03:18:22.525Z,12.97
2022-09-16T03:23:36.191Z,12.85
2022-09-16T03:29:09.769Z,12.80
2022-09-16T03:34:20.247Z,12.79
2022-09-16T03:39:22.635Z,12.75
2022-09-16T03:44:32.092Z,12.69
2022-09-16T03:49:33.890Z,12.66
2022-09-16T03:54:36.168Z,12.65
2022-09-16T03:59:37.763Z,12.72
2022-09-16T04:04:39.386Z,12.68
2022-09-16T04:09:41.277Z,12.59
2022-09-16T04:14:43.188Z,12.67
2022-09-16T04:19:44.813Z,12.70
2022-09-16T04:24:46.368Z,12.71
2022-09-16T04:29:47.944Z,12.59
2022-09-16T04:34:49.521Z,12.69
2022-09-16T04:39:51.114Z,12.70
2022-09-16T04:44:52.716Z,12.75
2022-09-16T04:49:54.227Z,12.75
2022-09-16T04:54:58.310Z,12.71
2022-09-16T04:59:59.981Z,12.75
2022-09-16T05:05:01.654Z,12.84
2022-09-16T05:10:03.646Z,12.67
2022-09-16T05:15:05.879Z,12.80
2022-09-16T05:20:07.724Z,12.57
2022-09-16T05:25:09.534Z,12.48
2022-09-16T05:30:11.759Z,12.73
2022-09-16T05:35:13.355Z,12.69
2022-09-16T05:40:14.972Z,12.72
2022-09-16T05:45:19.066Z,12.69
2022-09-16T05:50:24.836Z,12.66
2022-09-16T05:55:26.891Z,12.94
2022-09-16T06:00:28.594Z,12.87
2022-09-16T06:05:31.757Z,12.97
2022-09-16T06:10:40.514Z,13.08
2022-09-16T06:15:54.254Z,13.03
2022-09-16T06:20:56.401Z,13.10
2022-09-16T06:26:07.328Z,12.94
2022-09-16T06:31:15.001Z,12.94
2022-09-16T06:36:22.310Z,13.18
2022-09-16T06:41:24.881Z,13.28
2022-09-16T06:46:28.363Z,13.30
2022-09-16T06:51:31.675Z,13.25
2022-09-16T06:56:36.178Z,13.41
2022-09-16T07:01:38.121Z,13.52
2022-09-16T07:12:02.546Z,13.53
2022-09-16T07:17:04.201Z,13.51
2022-09-16T07:22:05.801Z,13.58
2022-09-16T07:27:07.503Z,13.75
2022-09-16T07:32:09.060Z,13.86
2022-09-16T07:37:10.748Z,13.91
2022-09-16T07:42:12.319Z,13.95
2022-09-16T07:47:14.757Z,14.03
2022-09-16T07:52:18.489Z,14.09
2022-09-16T07:57:20.036Z,14.21
2022-09-16T08:02:21.820Z,14.28
2022-09-16T08:07:23.495Z,14.29
2022-09-16T08:12:25.216Z,14.39
2022-09-16T08:17:28.664Z,14.34
2022-09-16T08:22:32.370Z,14.39
2022-09-16T08:27:37.110Z,14.35
2022-09-16T08:32:38.718Z,14.92
2022-09-16T08:37:41.409Z,14.86
2022-09-16T08:43:20.124Z,15.18
2022-09-16T08:48:43.195Z,15.41
2022-09-16T08:53:57.212Z,15.35
2022-09-16T08:59:01.709Z,15.26
2022-09-16T09:04:04.025Z,15.18
2022-09-16T09:09:08.592Z,14.98
2022-09-16T09:14:16.882Z,14.77
2022-09-16T09:19:38.826Z,14.68
2022-09-16T09:25:01.445Z,14.70
2022-09-16T09:30:15.030Z,14.71
2022-09-16T09:35:53.947Z,14.82
2022-09-16T09:41:06.583Z,15.26
2022-09-16T09:46:11.755Z,15.29
2022-09-16T09:51:17.706Z,15.32
2022-09-16T09:56:31.379Z,15.29
2022-09-16T10:01:32.954Z,15.38
2022-09-16T10:06:35.860Z,15.58
2022-09-16T10:11:47.523Z,15.81
2022-09-16T10:16:51.959Z,15.99
2022-09-16T10:21:56.399Z,16.51
2022-09-16T10:26:59.662Z,15.93
2022-09-16T10:32:18.109Z,15.04
2022-09-16T10:37:20.858Z,14.45
2022-09-16T10:42:24.099Z,14.17
2022-09-16T10:47:28.939Z,13.99
2022-09-16T10:52:50.886Z,13.99
2022-09-16T10:57:54.672Z,14.03
2022-09-16T11:03:37.238Z,14.82
2022-09-16T11:08:47.811Z,14.91
2022-09-16T11:14:03.379Z,14.75
2022-09-16T11:19:20.283Z,14.20
2022-09-16T11:24:49.096Z,13.93
2022-09-16T11:30:08.294Z,14.00
2022-09-16T11:35:36.988Z,13.93
2022-09-16T11:41:02.885Z,13.91
2022-09-16T11:46:17.305Z,13.84
2022-09-16T11:51:31.005Z,13.98
2022-09-16T11:56:43.537Z,14.13
2022-09-16T12:02:02.276Z,14.77
2022-09-16T12:07:09.790Z,15.20
2022-09-16T12:12:18.654Z,15.34
2022-09-16T12:17:25.653Z,15.39
2022-09-16T12:22:34.012Z,15.47
2022-09-16T12:27:48.685Z,15.71
2022-09-16T12:33:33.199Z,16.08
2022-09-16T12:38:35.508Z,16.11
2022-09-16T12:44:30.548Z,16.09
2022-09-16T12:50:02.181Z,15.99
2022-09-16T12:55:32.043Z,16.20
2022-09-16T13:00:40.888Z,16.21
2022-09-16T13:05:48.568Z,16.19
2022-09-16T13:16:36.725Z,16.43
2022-09-16T13:21:47.430Z,16.29
2022-09-16T13:26:49.125Z,16.33
2022-09-16T13:31:50.938Z,16.12
2022-09-16T13:36:52.884Z,16.00
2022-09-16T13:41:54.576Z,16.05
2022-09-16T13:47:10.263Z,16.27
2022-09-16T13:52:33.476Z,16.21
2022-09-16T13:58:02.891Z,16.13
2022-09-16T14:03:27.269Z,15.50
2022-09-16T14:08:58.098Z,15.39
2022-09-16T14:14:46.392Z,15.31
2022-09-16T14:19:49.896Z,15.20
2022-09-16T14:25:00.625Z,15.34
2022-09-16T14:30:17.609Z,15.46
2022-09-16T14:35:23.040Z,15.35
2022-09-16T14:40:27.150Z,15.49
2022-09-16T14:45:31.436Z,15.63
2022-09-16T14:50:38.398Z,15.58
2022-09-16T14:55:49.231Z,15.67
2022-09-16T15:01:15.890Z,15.48
2022-09-16T15:06:25.173Z,15.44
2022-09-16T15:11:48.899Z,15.44
2022-09-16T15:16:55.763Z,15.51
2022-09-16T15:21:58.111Z,15.48
2022-09-16T15:27:01.972Z,15.42
2022-09-16T15:32:16.730Z,15.31
2022-09-16T15:37:34.930Z,15.58
2022-09-16T15:42:38.073Z,15.49
2022-09-16T15:47:54.580Z,15.47
2022-09-16T15:53:07.083Z,15.42
2022-09-16T15:58:13.123Z,15.51
2022-09-16T16:03:21.215Z,15.16
2022-09-16T16:08:41.586Z,15.14
2022-09-16T16:13:44.049Z,15.01
2022-09-16T16:18:46.479Z,14.74
2022-09-16T16:23:48.520Z,14.58
2022-09-16T16:28:50.213Z,14.47
2022-09-16T16:33:52.015Z,14.34
2022-09-16T16:38:53.791Z,14.43
2022-09-16T16:43:55.683Z,14.28
2022-09-16T16:48:57.635Z,14.36
2022-09-16T16:54:00.271Z,14.30
2022-09-16T16:59:02.268Z,14.14
2022-09-16T17:04:05.507Z,14.27
2022-09-16T17:09:13.675Z,14.21
2022-09-16T17:14:17.588Z,14.05
2022-09-16T17:19:19.666Z,14.01
2022-09-16T17:24:22.115Z,13.85
2022-09-16T17:29:24.388Z,13.66
2022-09-16T17:34:26.593Z,13.55
2022-09-16T17:39:28.931Z,13.29
2022-09-16T17:44:30.819Z,13.36
2022-09-16T17:49:33.218Z,13.39
2022-09-16T17:54:35.082Z,13.31
2022-09-16T17:59:37.055Z,13.17
2022-09-16T18:04:38.934Z,13.09
2022-09-16T18:09:40.617Z,13.04
2022-09-16T18:14:42.696Z,12.95
2022-09-16T18:19:44.809Z,12.90
2022-09-16T18:24:46.782Z,12.78
2022-09-16T18:29:48.612Z,12.68
2022-09-16T18:34:50.424Z,12.83
2022-09-16T18:39:52.223Z,12.72
2022-09-16T18:44:54.488Z,12.77
2022-09-16T18:49:56.177Z,12.71
2022-09-16T18:54:57.986Z,12.68
2022-09-16T18:59:59.610Z,12.65
2022-09-16T19:05:01.887Z,12.70
2022-09-16T19:10:04.090Z,12.67
2022-09-16T19:15:06.422Z,12.71
2022-09-16T19:20:09.179Z,12.78
2022-09-16T19:25:10.756Z,12.77
2022-09-16T19:30:12.862Z,12.70
2022-09-16T19:35:15.663Z,12.71
2022-09-16T19:40:18.582Z,12.72
2022-09-16T19:45:24.777Z,12.78
2022-09-16T19:50:29.456Z,12.63
2022-09-16T19:55:31.981Z,12.48
2022-09-16T20:00:55.081Z,12.62
2022-09-16T20:06:11.148Z,12.60
2022-09-16T20:11:19.431Z,12.64
2022-09-16T20:16:23.121Z,12.45
2022-09-16T20:21:26.845Z,12.51
2022-09-16T20:26:28.696Z,12.34
2022-09-16T20:31:33.388Z,12.18
2022-09-16T20:36:38.052Z,12.31
2022-09-16T20:41:40.897Z,12.24
2022-09-16T20:46:43.346Z,12.32
2022-09-16T20:51:45.585Z,12.30
2022-09-16T20:56:48.286Z,12.21
2022-09-16T21:01:50.065Z,12.15
2022-09-16T21:06:51.690Z,12.23
2022-09-16T21:11:53.235Z,12.17
2022-09-16T21:16:54.780Z,12.19
2022-09-16T21:21:56.646Z,12.12
2022-09-16T21:26:58.253Z,12.13
2022-09-16T21:32:00.203Z,11.99
2022-09-16T21:37:03.671Z,12.02
2022-09-16T21:42:05.516Z,11.97
2022-09-16T21:47:10.461Z,11.96
2022-09-16T21:52:11.998Z,11.89
2022-09-16T21:57:14.457Z,11.87
2022-09-16T22:02:16.129Z,11.77
2022-09-16T22:07:17.714Z,11.66
2022-09-16T22:12:19.223Z,11.74
2022-09-16T22:17:21.533Z,11.78
2022-09-16T22:22:23.191Z,11.69
2022-09-16T22:27:24.706Z,11.67
2022-09-16T22:32:27.159Z,11.56
2022-09-16T22:37:28.757Z,11.61
2022-09-16T22:42:30.258Z,11.53
2022-09-16T22:47:31.812Z,11.51
2022-09-16T22:52:33.370Z,11.49
2022-09-16T22:57:34.909Z,11.41
2022-09-16T23:02:36.532Z,11.33
2022-09-16T23:07:39.041Z,11.33
2022-09-16T23:12:40.896Z,11.25
2022-09-16T23:17:42.447Z,11.22
2022-09-16T23:22:43.970Z,11.19
2022-09-16T23:27:45.501Z,11.10
2022-09-16T23:32:47.146Z,11.10
2022-09-16T23:37:49.419Z,11.06
2022-09-16T23:42:50.923Z,11.02
2022-09-16T23:47:53.677Z,11.09
2022-09-16T23:52:55.224Z,11.15
2022-09-16T23:57:57.782Z,11.15
